Time;durP1;ratioP1;P1;durP2;ratioP2;P2;SDS_P1;SDS_P2;PMS_P1;PMS_P2;Temp;Humidity;BMP_temperature;BMP_pressure;BME280_temperature;BME280_humidity;BME280_pressure;Samples;Min_cycle;Max_cycle;Signal;HPM_P1;HPM_P2
2023/04/13 00:00:15;;;;;;;1.00;0.90;;;7.20;99.90;;;;;;5052164;28;20202;-69
2023/04/13 00:02:41;;;;;;;1.67;0.90;;;7.30;99.90;;;;;;5050603;28;20175;-69
2023/04/13 00:05:09;;;;;;;1.90;0.90;;;7.40;99.90;;;;;;5051806;28;20433;-69
2023/04/13 00:07:38;;;;;;;0.90;0.80;;;7.40;99.90;;;;;;5051491;28;20401;-70
2023/04/13 00:10:08;;;;;;;4.03;0.83;;;7.50;99.90;;;;;;5051706;28;20417;-69
2023/04/13 00:12:35;;;;;;;2.33;0.63;;;7.50;99.90;;;;;;5051548;28;20421;-70
2023/04/13 00:15:01;;;;;;;2.80;0.90;;;7.60;99.90;;;;;;5051730;28;20422;-70
2023/04/13 00:17:26;;;;;;;3.70;0.80;;;7.60;99.90;;;;;;5051503;28;20420;-70
2023/04/13 00:19:52;;;;;;;0.80;0.60;;;7.70;99.90;;;;;;5051795;28;20402;-70
2023/04/13 00:22:19;;;;;;;0.70;0.50;;;7.80;99.90;;;;;;5051677;28;20159;-69
2023/04/13 00:24:44;;;;;;;0.90;0.77;;;7.80;99.90;;;;;;5050431;28;20237;-69
2023/04/13 00:27:10;;;;;;;2.87;0.73;;;7.80;99.90;;;;;;5051435;28;20494;-70
2023/04/13 00:29:36;;;;;;;9.13;0.90;;;7.90;99.90;;;;;;5051532;28;20216;-70
2023/04/13 00:32:03;;;;;;;2.70;1.23;;;7.90;99.90;;;;;;5051485;28;20899;-69
2023/04/13 00:34:28;;;;;;;1.00;0.80;;;7.90;99.90;;;;;;5051327;28;20194;-69
2023/04/13 00:36:54;;;;;;;1.50;0.80;;;8.00;99.90;;;;;;5051173;28;20401;-70
2023/04/13 00:39:22;;;;;;;2.80;0.73;;;8.00;99.90;;;;;;5051647;28;20166;-70
2023/04/13 00:41:49;;;;;;;1.00;0.77;;;8.00;99.90;;;;;;5051690;28;20159;-69
2023/04/13 00:44:18;;;;;;;0.90;0.70;;;8.00;99.90;;;;;;5050909;28;20429;-69
2023/04/13 00:46:46;;;;;;;3.73;0.90;;;8.10;99.90;;;;;;5050039;28;20417;-69
2023/04/13 00:49:16;;;;;;;17.03;1.20;;;8.00;99.90;;;;;;5051011;28;20833;-70
2023/04/13 00:51:43;;;;;;;1.00;0.73;;;8.10;99.90;;;;;;5051563;28;20405;-69
2023/04/13 00:54:12;;;;;;;1.70;0.77;;;8.10;99.90;;;;;;5051282;28;20449;-70
2023/04/13 00:56:41;;;;;;;1.17;0.70;;;8.10;99.90;;;;;;5051478;28;20406;-70
2023/04/13 00:59:10;;;;;;;1.57;0.70;;;8.10;99.90;;;;;;5051069;28;20479;-71
2023/04/13 01:01:45;;;;;;;1.20;0.80;;;8.10;99.90;;;;;;5055252;28;20808;-70
2023/04/13 01:04:17;;;;;;;2.50;1.07;;;8.20;99.90;;;;;;5055144;28;20424;-69
2023/04/13 01:06:52;;;;;;;1.20;0.70;;;8.10;99.90;;;;;;5055180;28;20416;-69
2023/04/13 01:09:24;;;;;;;0.90;0.70;;;8.10;99.90;;;;;;5055012;28;20396;-70
2023/04/13 01:12:01;;;;;;;1.10;0.80;;;8.10;99.90;;;;;;5055059;28;20393;-69
2023/04/13 01:14:39;;;;;;;1.27;0.63;;;8.10;99.90;;;;;;5054590;28;20850;-70
2023/04/13 01:17:12;;;;;;;2.50;0.80;;;8.00;99.90;;;;;;5054779;28;20411;-69
2023/04/13 01:20:00;;;;;;;4.80;0.80;;;8.00;99.90;;;;;;5054825;28;20396;-69
2023/04/13 01:22:28;;;;;;;1.10;0.70;;;8.00;99.90;;;;;;5054877;28;20755;-69
2023/04/13 01:25:29;;;;;;;4.73;1.20;;;8.00;99.90;;;;;;5054611;28;20929;-70
2023/04/13 01:27:59;;;;;;;0.90;0.70;;;8.00;99.90;;;;;;5053122;28;20501;-69
2023/04/13 01:30:27;;;;;;;1.93;1.00;;;7.90;99.90;;;;;;5054582;28;20464;-70
2023/04/13 01:32:54;;;;;;;2.80;1.03;;;7.90;99.90;;;;;;5054607;28;20444;-70
2023/04/13 01:35:21;;;;;;;1.47;0.97;;;7.90;99.90;;;;;;5054410;28;20418;-69
2023/04/13 01:37:49;;;;;;;1.73;0.83;;;7.90;99.90;;;;;;5054397;28;20413;-70
2023/04/13 01:40:14;;;;;;;2.73;0.83;;;7.90;99.90;;;;;;5054414;28;20451;-69
2023/04/13 01:42:41;;;;;;;1.50;0.90;;;7.90;99.90;;;;;;5054426;28;20797;-69
2023/04/13 01:45:12;;;;;;;1.20;0.73;;;7.90;99.90;;;;;;5054349;28;20194;-70
2023/04/13 01:47:49;;;;;;;1.93;0.80;;;7.90;99.90;;;;;;5054164;28;20396;-69
2023/04/13 01:50:24;;;;;;;1.40;0.70;;;7.80;99.90;;;;;;5054369;28;20810;-70
2023/04/13 01:52:53;;;;;;;2.17;0.70;;;7.80;99.90;;;;;;5054320;28;20825;-69
2023/04/13 01:55:21;;;;;;;1.57;0.90;;;7.90;99.90;;;;;;5053789;28;20427;-69
2023/04/13 01:57:49;;;;;;;1.00;0.90;;;7.90;99.90;;;;;;5053899;28;20412;-69
2023/04/13 02:00:17;;;;;;;2.10;1.10;;;7.90;99.90;;;;;;5054157;28;20413;-69
2023/04/13 02:02:43;;;;;;;1.53;0.70;;;7.90;99.90;;;;;;5053036;28;20928;-70
2023/04/13 02:05:10;;;;;;;1.87;0.80;;;7.90;99.90;;;;;;5054022;28;20456;-68
2023/04/13 02:07:40;;;;;;;0.93;0.73;;;7.90;99.90;;;;;;5052451;28;20420;-69
2023/04/13 02:10:06;;;;;;;2.40;0.70;;;7.90;99.90;;;;;;5053862;28;20433;-69
2023/04/13 02:12:33;;;;;;;2.43;0.83;;;7.90;99.90;;;;;;5052514;28;20416;-68
2023/04/13 02:15:00;;;;;;;1.20;0.70;;;7.90;99.90;;;;;;5053843;28;20430;-69
2023/04/13 02:17:28;;;;;;;1.20;0.90;;;8.00;99.90;;;;;;5053535;28;20406;-69
2023/04/13 02:19:56;;;;;;;1.00;0.70;;;8.00;99.90;;;;;;5053763;28;20445;-68
2023/04/13 02:22:22;;;;;;;1.13;0.73;;;8.00;99.90;;;;;;5053750;28;20401;-69
2023/04/13 02:24:48;;;;;;;1.37;0.80;;;8.00;99.90;;;;;;5052348;28;20494;-70
2023/04/13 02:27:15;;;;;;;1.87;0.80;;;8.10;99.90;;;;;;5053505;28;20417;-69
2023/04/13 02:29:40;;;;;;;1.13;0.70;;;8.10;99.90;;;;;;5053667;28;20495;-69
2023/04/13 02:32:06;;;;;;;6.40;0.80;;;8.10;99.90;;;;;;5053379;28;20848;-69
2023/04/13 02:34:32;;;;;;;2.60;0.60;;;8.10;99.90;;;;;;5053283;28;20203;-70
2023/04/13 02:36:59;;;;;;;0.80;0.70;;;8.10;99.90;;;;;;5051738;28;20417;-69
2023/04/13 02:39:24;;;;;;;2.97;0.80;;;8.10;99.90;;;;;;5053312;28;20853;-70
2023/04/13 02:41:50;;;;;;;1.03;0.70;;;8.20;99.90;;;;;;5053270;28;20488;-69
2023/04/13 02:44:16;;;;;;;1.50;1.30;;;8.20;99.90;;;;;;5052080;28;20269;-70
2023/04/13 02:46:42;;;;;;;1.00;0.80;;;8.20;99.90;;;;;;5051946;28;20175;-70
2023/04/13 02:49:07;;;;;;;1.27;0.60;;;8.30;99.90;;;;;;5053109;28;20660;-70
2023/04/13 02:51:33;;;;;;;0.80;0.70;;;8.20;99.90;;;;;;5053020;28;20599;-70
2023/04/13 02:54:01;;;;;;;0.80;0.60;;;8.20;99.90;;;;;;5052979;28;20250;-70
2023/04/13 02:56:27;;;;;;;1.43;0.83;;;8.20;99.90;;;;;;5053018;28;20250;-70
2023/04/13 02:58:52;;;;;;;0.83;0.60;;;8.30;99.90;;;;;;5052822;28;20494;-70
2023/04/13 03:01:18;;;;;;;2.00;0.60;;;8.30;99.90;;;;;;5052929;28;20397;-70
2023/04/13 03:03:44;;;;;;;0.80;0.60;;;8.30;99.90;;;;;;5052765;28;20182;-70
2023/04/13 03:06:10;;;;;;;8.10;0.97;;;8.30;99.90;;;;;;5052424;28;20159;-70
2023/04/13 03:08:35;;;;;;;1.00;0.70;;;8.30;99.90;;;;;;5052629;28;20420;-69
2023/04/13 03:11:02;;;;;;;3.00;1.10;;;8.30;99.90;;;;;;5052744;28;20261;-70
2023/04/13 03:13:28;;;;;;;0.93;0.60;;;8.40;99.90;;;;;;5052323;28;20195;-70
2023/04/13 03:15:53;;;;;;;0.70;0.50;;;8.30;99.90;;;;;;5052425;28;20968;-70
2023/04/13 03:18:19;;;;;;;0.80;0.60;;;8.30;99.90;;;;;;5050813;28;20218;-70
2023/04/13 03:20:45;;;;;;;1.50;0.67;;;8.20;99.90;;;;;;5052617;28;20167;-70
2023/04/13 03:23:10;;;;;;;1.00;0.60;;;8.20;99.90;;;;;;5052039;28;20539;-70
2023/04/13 03:25:36;;;;;;;0.77;0.50;;;8.20;99.90;;;;;;5052106;28;20191;-70
2023/04/13 03:28:02;;;;;;;1.37;0.73;;;8.20;99.90;;;;;;5052300;28;20178;-70
2023/04/13 03:30:28;;;;;;;0.90;0.60;;;8.20;99.90;;;;;;5052436;28;20171;-70
2023/04/13 03:32:54;;;;;;;0.80;0.60;;;8.20;99.90;;;;;;5052137;28;20244;-70
2023/04/13 03:35:19;;;;;;;1.10;0.70;;;8.20;99.90;;;;;;5052302;28;20793;-70
2023/04/13 03:37:45;;;;;;;3.47;0.60;;;8.30;99.90;;;;;;5052076;28;20404;-70
2023/04/13 03:40:10;;;;;;;0.80;0.60;;;8.20;99.90;;;;;;5052302;28;20163;-70
2023/04/13 03:42:37;;;;;;;3.97;0.80;;;8.30;99.90;;;;;;5052330;28;20163;-70
2023/04/13 03:45:03;;;;;;;1.13;0.70;;;8.20;99.90;;;;;;5052156;28;20590;-70
2023/04/13 03:47:29;;;;;;;0.83;0.60;;;8.10;99.90;;;;;;5051966;28;20540;-70
2023/04/13 03:49:55;;;;;;;0.80;0.60;;;8.10;99.90;;;;;;5052150;28;20419;-70
2023/04/13 03:52:20;;;;;;;0.80;0.60;;;8.10;99.90;;;;;;5052203;28;20163;-69
2023/04/13 03:54:46;;;;;;;0.80;0.60;;;8.10;99.90;;;;;;5051930;28;20202;-70
2023/04/13 03:57:11;;;;;;;1.00;0.60;;;8.10;99.90;;;;;;5051789;28;20167;-71
2023/04/13 03:59:37;;;;;;;2.97;1.00;;;8.20;99.90;;;;;;5051834;28;20164;-70
2023/04/13 04:02:02;;;;;;;2.53;0.70;;;8.20;99.90;;;;;;5052091;28;20509;-70
2023/04/13 04:04:28;;;;;;;0.73;0.50;;;8.20;99.90;;;;;;5050577;28;20268;-70
2023/04/13 04:06:54;;;;;;;1.27;0.80;;;8.20;99.90;;;;;;5051683;28;20162;-70
2023/04/13 04:09:20;;;;;;;1.43;0.73;;;8.20;99.90;;;;;;5050578;28;20547;-69
2023/04/13 04:11:45;;;;;;;1.40;0.60;;;8.20;99.90;;;;;;5051754;28;20416;-70
2023/04/13 04:14:11;;;;;;;1.07;0.80;;;8.30;99.90;;;;;;5050298;28;20234;-70
2023/04/13 04:16:36;;;;;;;1.00;0.80;;;8.20;99.90;;;;;;5051859;28;20163;-69
2023/04/13 04:19:02;;;;;;;0.80;0.60;;;8.30;99.90;;;;;;5051576;28;20159;-69
2023/04/13 04:21:33;;;;;;;0.80;0.63;;;8.30;99.90;;;;;;5051825;28;20254;-70
2023/04/13 04:23:59;;;;;;;0.90;0.50;;;8.30;99.90;;;;;;5051676;28;20191;-70
2023/04/13 04:26:25;;;;;;;0.90;0.57;;;8.20;99.90;;;;;;5051755;28;20401;-70
2023/04/13 04:28:51;;;;;;;0.80;0.60;;;8.20;99.90;;;;;;5050199;28;20406;-70
2023/04/13 04:31:17;;;;;;;0.80;0.50;;;8.30;99.90;;;;;;5051414;28;20453;-70
2023/04/13 04:33:43;;;;;;;1.10;0.87;;;8.30;99.90;;;;;;5051285;28;20626;-70
2023/04/13 04:36:12;;;;;;;0.80;0.60;;;8.30;99.90;;;;;;5054921;28;20509;-70
2023/04/13 04:38:38;;;;;;;1.57;0.70;;;8.30;99.90;;;;;;5055400;28;20425;-69
2023/04/13 04:41:04;;;;;;;0.80;0.60;;;8.30;99.90;;;;;;5055697;28;20397;-70
2023/04/13 04:43:31;;;;;;;1.33;0.77;;;8.30;99.90;;;;;;5055272;28;20961;-70
2023/04/13 04:45:56;;;;;;;1.23;0.80;;;8.40;99.90;;;;;;5055545;28;20246;-70
2023/04/13 04:48:25;;;;;;;1.40;0.60;;;8.30;99.90;;;;;;5055269;28;20437;-69
2023/04/13 04:50:51;;;;;;;0.80;0.50;;;8.40;99.90;;;;;;5055414;28;20169;-71
2023/04/13 04:53:17;;;;;;;1.47;0.50;;;8.30;99.90;;;;;;5055306;28;20903;-70
2023/04/13 04:55:43;;;;;;;1.43;0.70;;;8.20;99.90;;;;;;5055086;28;20452;-69
2023/04/13 04:58:08;;;;;;;1.53;0.50;;;8.20;99.90;;;;;;5055196;28;20242;-70
2023/04/13 05:00:34;;;;;;;0.70;0.50;;;8.20;99.90;;;;;;5055257;28;20167;-70
2023/04/13 05:03:00;;;;;;;7.47;0.90;;;8.20;99.90;;;;;;5055241;28;20719;-70
2023/04/13 05:05:29;;;;;;;0.80;0.60;;;8.10;99.90;;;;;;5055168;28;20433;-70
2023/04/13 05:07:54;;;;;;;3.40;0.83;;;8.10;99.90;;;;;;5054865;28;20408;-69
2023/04/13 05:10:23;;;;;;;1.90;0.90;;;8.10;99.90;;;;;;5055124;28;20813;-70
2023/04/13 05:12:49;;;;;;;2.97;0.80;;;8.10;99.90;;;;;;5054879;28;20175;-69
2023/04/13 05:15:15;;;;;;;0.83;0.57;;;8.00;99.90;;;;;;5053730;28;20437;-70
2023/04/13 05:17:40;;;;;;;2.27;0.80;;;8.00;99.90;;;;;;5054804;28;20440;-69
2023/04/13 05:20:07;;;;;;;0.70;0.50;;;7.90;99.90;;;;;;5055025;28;20633;-70
2023/04/13 05:22:32;;;;;;;1.97;0.97;;;7.90;99.90;;;;;;5054666;28;20171;-70
2023/04/13 05:24:58;;;;;;;3.70;0.97;;;7.90;99.90;;;;;;5053431;28;20425;-70
2023/04/13 05:27:23;;;;;;;0.80;0.60;;;7.90;99.90;;;;;;5054611;28;20170;-70
2023/04/13 05:29:49;;;;;;;0.80;0.60;;;8.00;99.90;;;;;;5054820;28;20195;-69
2023/04/13 05:32:14;;;;;;;1.30;0.80;;;8.00;99.90;;;;;;5054626;28;20249;-70
2023/04/13 05:34:40;;;;;;;0.70;0.50;;;8.00;99.90;;;;;;5053256;28;20202;-70
2023/04/13 05:37:05;;;;;;;1.27;0.80;;;8.00;99.90;;;;;;5054431;28;20166;-69
2023/04/13 05:39:31;;;;;;;1.00;0.70;;;8.00;99.90;;;;;;5054633;28;20195;-70
2023/04/13 05:41:56;;;;;;;1.10;0.97;;;8.10;99.90;;;;;;5054541;28;20574;-70
2023/04/13 05:44:22;;;;;;;1.20;0.60;;;8.10;99.90;;;;;;5054323;28;20249;-71
2023/04/13 05:46:49;;;;;;;0.80;0.60;;;8.20;99.90;;;;;;5053703;28;20250;-70
2023/04/13 05:49:15;;;;;;;3.43;0.87;;;8.20;99.90;;;;;;5054316;28;20250;-70
2023/04/13 05:51:40;;;;;;;1.87;0.60;;;8.20;99.90;;;;;;5054341;28;20492;-70
2023/04/13 05:54:08;;;;;;;3.10;0.73;;;8.20;99.90;;;;;;5052903;28;20226;-69
2023/04/13 05:56:35;;;;;;;1.30;0.70;;;8.20;99.90;;;;;;5054292;28;20162;-70
2023/04/13 05:59:03;;;;;;;0.80;0.60;;;8.20;99.90;;;;;;5053668;28;20488;-70
2023/04/13 06:01:29;;;;;;;2.30;0.80;;;8.30;99.90;;;;;;5054236;28;20970;-69
2023/04/13 06:03:55;;;;;;;2.17;0.70;;;8.30;99.90;;;;;;5054107;28;20479;-70
2023/04/13 06:06:20;;;;;;;1.00;0.80;;;8.30;99.90;;;;;;5052736;28;20425;-69
2023/04/13 06:08:46;;;;;;;0.93;0.70;;;8.40;99.90;;;;;;5053806;28;20408;-69
2023/04/13 06:11:11;;;;;;;1.23;0.70;;;8.40;99.90;;;;;;5052751;28;20175;-70
2023/04/13 06:13:39;;;;;;;1.30;0.70;;;8.40;99.90;;;;;;5053561;28;20199;-70
2023/04/13 06:16:06;;;;;;;5.10;1.17;;;8.50;99.90;;;;;;5053881;28;20183;-70
2023/04/13 06:18:31;;;;;;;0.83;0.60;;;8.70;99.90;;;;;;5053561;28;20414;-70
2023/04/13 06:20:58;;;;;;;1.00;0.60;;;8.70;99.90;;;;;;5052474;28;20401;-70
2023/04/13 06:23:24;;;;;;;1.00;0.60;;;8.80;99.90;;;;;;5053618;28;20194;-70
2023/04/13 06:25:49;;;;;;;0.80;0.63;;;8.80;99.90;;;;;;5052379;28;20850;-71
2023/04/13 06:28:15;;;;;;;2.20;0.63;;;8.90;99.90;;;;;;5053134;28;20887;-70
2023/04/13 06:30:41;;;;;;;1.30;0.63;;;9.00;99.90;;;;;;5052219;28;20316;-70
2023/04/13 06:33:06;;;;;;;1.07;0.70;;;9.10;99.90;;;;;;5052096;28;20761;-70
2023/04/13 06:35:32;;;;;;;1.27;0.60;;;9.30;99.90;;;;;;5053118;28;20194;-69
2023/04/13 06:38:00;;;;;;;1.60;0.80;;;9.60;99.90;;;;;;5051747;28;20405;-70
2023/04/13 06:40:26;;;;;;;0.90;0.67;;;10.00;99.90;;;;;;5053436;28;20163;-71
2023/04/13 06:42:53;;;;;;;0.90;0.70;;;10.30;99.90;;;;;;5053288;28;20398;-70
2023/04/13 06:45:20;;;;;;;6.83;0.77;;;10.70;99.90;;;;;;5053247;28;20429;-70
2023/04/13 06:47:46;;;;;;;0.90;0.63;;;11.10;99.90;;;;;;5053058;28;20413;-70
2023/04/13 06:50:12;;;;;;;1.40;0.70;;;12.00;99.90;;;;;;5053240;28;20772;-70
2023/04/13 06:52:44;;;;;;;1.53;0.67;;;12.60;99.90;;;;;;5051921;28;20753;-70
2023/04/13 06:55:09;;;;;;;0.90;0.70;;;12.40;99.90;;;;;;5051887;28;20426;-70
2023/04/13 06:57:35;;;;;;;0.90;0.70;;;12.50;99.90;;;;;;5051939;28;20405;-70
2023/04/13 07:00:00;;;;;;;1.07;0.80;;;12.60;99.90;;;;;;5053058;28;20201;-70
2023/04/13 07:02:26;;;;;;;1.03;0.80;;;12.60;99.90;;;;;;5053210;28;20155;-72
2023/04/13 07:04:52;;;;;;;1.10;0.70;;;12.80;99.90;;;;;;5052850;28;20187;-70
2023/04/13 07:07:17;;;;;;;1.63;0.80;;;12.70;99.90;;;;;;5051435;28;20254;-71
2023/04/13 07:09:43;;;;;;;2.40;0.80;;;12.90;99.90;;;;;;5052857;28;20171;-70
2023/04/13 07:12:09;;;;;;;3.73;0.80;;;13.10;99.90;;;;;;5052849;28;20163;-70
2023/04/13 07:14:37;;;;;;;3.63;0.70;;;12.70;99.90;;;;;;5052526;28;20825;-72
2023/04/13 07:17:03;;;;;;;0.90;0.80;;;12.30;99.90;;;;;;5052455;28;20163;-70
2023/04/13 07:19:30;;;;;;;0.80;0.60;;;12.30;99.90;;;;;;5052638;28;20946;-71
2023/04/13 07:21:58;;;;;;;1.30;0.60;;;12.10;99.90;;;;;;5052615;28;20965;-70
2023/04/13 07:24:27;;;;;;;0.80;0.60;;;12.30;99.90;;;;;;5052546;28;20421;-70
2023/04/13 07:26:55;;;;;;;0.83;0.70;;;12.90;99.90;;;;;;5052307;28;20902;-71
2023/04/13 07:29:21;;;;;;;1.17;0.70;;;13.40;99.90;;;;;;5052674;28;20493;-71
2023/04/13 07:31:46;;;;;;;1.67;0.80;;;14.20;99.90;;;;;;5051289;28;20835;-70
2023/04/13 07:34:12;;;;;;;1.40;0.93;;;15.50;99.90;;;;;;5052262;28;20203;-70
2023/04/13 07:36:37;;;;;;;0.90;0.60;;;15.80;99.90;;;;;;5052377;28;20636;-70
2023/04/13 07:39:03;;;;;;;1.87;0.80;;;15.80;99.90;;;;;;5052084;28;20265;-71
2023/04/13 07:41:29;;;;;;;1.30;0.90;;;15.20;99.90;;;;;;5052388;28;20653;-70
2023/04/13 07:43:55;;;;;;;1.30;0.70;;;14.20;99.90;;;;;;5052293;28;20547;-70
2023/04/13 07:46:25;;;;;;;1.67;1.07;;;14.00;99.90;;;;;;5052250;28;20167;-70
2023/04/13 07:48:54;;;;;;;2.83;1.10;;;13.50;99.90;;;;;;5051865;28;20170;-70
2023/04/13 07:51:20;;;;;;;5.70;0.90;;;13.10;99.90;;;;;;5052142;28;20405;-71
2023/04/13 07:53:46;;;;;;;3.00;2.00;;;12.80;99.90;;;;;;5052041;28;20481;-70
2023/04/13 07:56:12;;;;;;;1.33;0.70;;;12.50;99.90;;;;;;5052114;28;20439;-72
2023/04/13 07:58:38;;;;;;;1.47;0.90;;;12.10;99.90;;;;;;5051832;28;20217;-70
2023/04/13 08:01:04;;;;;;;1.33;1.10;;;11.80;99.90;;;;;;5052073;28;20401;-69
2023/04/13 08:03:31;;;;;;;1.00;0.87;;;11.80;99.90;;;;;;5050580;28;20173;-70
2023/04/13 08:05:56;;;;;;;2.97;1.00;;;11.50;99.90;;;;;;5050711;28;20410;-69
2023/04/13 08:08:22;;;;;;;1.40;1.30;;;11.20;99.90;;;;;;5051440;28;20531;-71
2023/04/13 08:10:47;;;;;;;2.77;1.67;;;11.30;99.90;;;;;;5050731;28;20170;-70
2023/04/13 08:13:14;;;;;;;3.70;1.00;;;11.30;99.90;;;;;;5051764;28;20198;-70
2023/04/13 08:15:40;;;;;;;1.17;1.00;;;11.30;99.90;;;;;;5052102;28;20675;-71
2023/04/13 08:18:06;;;;;;;2.50;1.37;;;11.20;99.90;;;;;;5051588;28;20940;-70
2023/04/13 08:20:32;;;;;;;4.27;1.27;;;11.00;99.90;;;;;;5051981;28;20405;-69
2023/04/13 08:22:58;;;;;;;3.93;1.33;;;10.90;99.90;;;;;;5051844;28;20158;-70
2023/04/13 08:25:24;;;;;;;2.17;1.40;;;10.90;99.90;;;;;;5051718;28;20431;-70
2023/04/13 08:27:50;;;;;;;2.10;1.30;;;10.90;99.90;;;;;;5051490;28;20934;-70
2023/04/13 08:30:16;;;;;;;2.70;1.13;;;10.80;99.90;;;;;;5050753;28;20549;-69
2023/04/13 08:32:41;;;;;;;2.00;1.40;;;10.80;99.90;;;;;;5051917;28;20285;-70
2023/04/13 08:35:09;;;;;;;2.90;1.83;;;10.80;99.90;;;;;;5051822;28;20958;-70
2023/04/13 08:37:35;;;;;;;4.37;1.40;;;10.90;99.90;;;;;;5051257;28;20609;-72
2023/04/13 08:40:06;;;;;;;3.53;1.60;;;11.10;99.90;;;;;;5051587;28;20425;-71
2023/04/13 08:42:32;;;;;;;4.88;1.77;;;11.20;99.90;;;;;;5050895;28;20411;-70
2023/04/13 08:45:00;;;;;;;7.77;2.27;;;11.50;99.90;;;;;;5052074;28;20750;-69
2023/04/13 08:47:27;;;;;;;9.67;1.70;;;11.70;99.90;;;;;;5051632;28;20405;-68
2023/04/13 08:50:00;;;;;;;6.73;1.97;;;11.90;99.90;;;;;;5051640;28;20471;-68
2023/04/13 08:52:27;;;;;;;4.17;1.50;;;11.80;99.90;;;;;;5051801;28;20413;-69
2023/04/13 08:54:54;;;;;;;6.17;2.47;;;11.90;99.90;;;;;;5052378;28;20492;-68
2023/04/13 08:57:21;;;;;;;3.47;1.57;;;12.10;99.90;;;;;;5051339;28;20484;-68
2023/04/13 08:59:50;;;;;;;6.20;1.80;;;12.10;99.90;;;;;;5051503;28;20405;-69
2023/04/13 09:02:23;;;;;;;3.50;1.73;;;12.10;99.90;;;;;;5051761;28;20412;-69
2023/04/13 09:04:51;;;;;;;6.83;5.23;;;12.20;99.90;;;;;;5051441;28;20857;-69
2023/04/13 09:07:29;;;;;;;10.30;2.17;;;12.20;99.90;;;;;;5051148;28;20839;-70
2023/04/13 09:09:58;;;;;;;2.23;2.03;;;12.30;99.90;;;;;;5051486;28;20882;-69
2023/04/13 09:12:25;;;;;;;2.47;1.57;;;12.20;99.90;;;;;;5051234;28;20828;-70
2023/04/13 09:14:51;;;;;;;4.50;1.83;;;12.00;99.90;;;;;;5051262;28;20464;-70
2023/04/13 09:17:28;;;;;;;2.63;1.63;;;11.90;99.90;;;;;;5050899;28;20408;-70
2023/04/13 09:20:10;;;;;;;10.57;2.03;;;11.70;99.90;;;;;;5051796;28;20408;-69
2023/04/13 09:22:35;;;;;;;5.17;1.73;;;11.40;99.90;;;;;;5055052;28;20405;-69
2023/04/13 09:25:02;;;;;;;3.07;1.37;;;11.50;99.90;;;;;;5054920;28;20432;-69
2023/04/13 09:27:29;;;;;;;4.70;2.10;;;11.50;99.90;;;;;;5054488;28;20171;-69
2023/04/13 09:29:55;;;;;;;3.40;2.27;;;11.80;99.90;;;;;;5054401;28;20475;-70
2023/04/13 09:32:24;;;;;;;7.63;2.47;;;12.30;99.90;;;;;;5054778;28;20170;-69
2023/04/13 09:35:16;;;;;;;2.30;1.70;;;12.80;99.90;;;;;;5054562;28;20977;-69
2023/04/13 09:37:43;;;;;;;4.90;2.30;;;13.20;99.90;;;;;;5053989;28;20421;-69
2023/04/13 09:40:14;;;;;;;5.40;1.60;;;13.40;99.90;;;;;;5054517;28;20463;-69
2023/04/13 09:42:41;;;;;;;4.30;1.77;;;13.50;99.90;;;;;;5054566;28;20456;-69
2023/04/13 09:45:08;;;;;;;3.50;1.90;;;13.70;99.90;;;;;;5054372;28;20433;-69
2023/04/13 09:47:37;;;;;;;2.10;1.80;;;14.20;99.90;;;;;;5052926;28;20414;-69
2023/04/13 09:50:04;;;;;;;14.50;3.10;;;14.70;99.90;;;;;;5054468;28;20405;-69
2023/04/13 09:52:30;;;;;;;4.60;2.33;;;15.10;99.90;;;;;;5054583;28;20968;-69
2023/04/13 09:54:57;;;;;;;10.83;2.20;;;15.30;99.90;;;;;;5054160;28;20467;-69
2023/04/13 09:57:30;;;;;;;4.60;1.90;;;15.60;99.90;;;;;;5054163;28;20413;-70
2023/04/13 09:59:59;;;;;;;3.63;1.87;;;15.90;99.90;;;;;;5054244;28;20437;-69
2023/04/13 10:02:25;;;;;;;2.17;1.90;;;16.70;99.90;;;;;;5054164;28;20934;-69
2023/04/13 10:04:52;;;;;;;12.00;6.60;;;16.60;99.90;;;;;;5053142;28;21005;-69
2023/04/13 10:07:18;;;;;;;4.90;2.40;;;16.50;99.90;;;;;;5052502;28;20428;-70
2023/04/13 10:09:44;;;;;;;3.47;1.50;;;18.20;99.90;;;;;;5052892;28;20406;-70
2023/04/13 10:12:12;;;;;;;5.33;2.10;;;21.30;99.90;;;;;;5052735;28;20175;-70
2023/04/13 10:14:42;;;;;;;5.47;1.97;;;24.20;73.20;;;;;;5053683;28;20202;-71
2023/04/13 10:17:27;;;;;;;3.83;1.97;;;26.60;66.50;;;;;;5053566;28;20773;-68
2023/04/13 10:19:58;;;;;;;3.63;1.30;;;26.20;52.70;;;;;;5053703;28;20524;-69
2023/04/13 10:22:24;;;;;;;7.17;4.23;;;23.90;49.40;;;;;;5053513;28;20732;-70
2023/04/13 10:24:51;;;;;;;5.93;2.70;;;22.10;50.40;;;;;;5053690;28;20440;-70
2023/04/13 10:27:19;;;;;;;5.17;2.10;;;20.70;54.50;;;;;;5053379;28;20408;-70
2023/04/13 10:29:46;;;;;;;4.40;2.10;;;20.30;61.20;;;;;;5053636;28;20416;-70
2023/04/13 10:32:22;;;;;;;4.60;1.60;;;20.30;57.90;;;;;;5053588;28;20441;-70
2023/04/13 10:34:49;;;;;;;6.40;1.83;;;20.20;57.20;;;;;;5052167;28;20500;-67
2023/04/13 10:37:22;;;;;;;4.63;2.10;;;20.10;60.20;;;;;;5053313;28;20833;-70
2023/04/13 10:39:59;;;;;;;2.70;1.70;;;19.90;57.60;;;;;;5053486;28;20408;-70
2023/04/13 10:42:24;;;;;;;3.30;1.90;;;19.30;56.50;;;;;;5053308;28;20454;-70
2023/04/13 10:44:52;;;;;;;4.60;1.73;;;19.30;55.80;;;;;;5053151;28;20433;-70
2023/04/13 10:47:19;;;;;;;4.47;2.00;;;19.80;56.00;;;;;;5053003;28;20181;-70
2023/04/13 10:49:46;;;;;;;3.00;1.60;;;19.70;52.90;;;;;;5053332;28;20437;-70
2023/04/13 10:52:12;;;;;;;5.80;1.73;;;19.20;54.30;;;;;;5053275;28;20409;-69
2023/04/13 10:54:39;;;;;;;9.43;2.90;;;18.80;54.70;;;;;;5053085;28;20518;-69
2023/04/13 10:57:07;;;;;;;3.30;1.90;;;18.40;56.50;;;;;;5051242;28;20406;-69
2023/04/13 10:59:55;;;;;;;7.50;2.10;;;17.50;55.50;;;;;;5053022;28;20421;-69
2023/04/13 11:02:22;;;;;;;5.90;1.50;;;17.00;57.50;;;;;;5053060;28;20451;-69
2023/04/13 11:04:48;;;;;;;5.37;1.90;;;16.10;58.30;;;;;;5052904;28;20425;-69
2023/04/13 11:07:16;;;;;;;7.13;3.77;;;15.40;59.90;;;;;;5052724;28;20431;-69
2023/04/13 11:09:44;;;;;;;13.70;2.23;;;15.40;65.50;;;;;;5052828;28;20485;-69
2023/04/13 11:12:17;;;;;;;4.13;1.80;;;16.00;69.10;;;;;;5052890;28;20409;-69
2023/04/13 11:14:46;;;;;;;7.90;1.97;;;16.60;70.50;;;;;;5052664;28;20806;-69
2023/04/13 11:17:15;;;;;;;3.60;1.70;;;16.90;66.10;;;;;;5051915;28;20402;-69
2023/04/13 11:19:54;;;;;;;2.30;1.53;;;16.80;61.80;;;;;;5052293;28;20836;-69
2023/04/13 11:22:23;;;;;;;3.43;1.40;;;17.60;63.20;;;;;;5051087;28;20913;-69
2023/04/13 11:24:49;;;;;;;4.57;1.87;;;18.80;62.80;;;;;;5052579;28;20428;-70
2023/04/13 11:27:22;;;;;;;2.90;1.50;;;20.00;58.10;;;;;;5052401;28;20413;-70
2023/04/13 11:29:58;;;;;;;8.93;4.10;;;21.60;56.90;;;;;;5052537;28;20912;-71
2023/04/13 11:32:25;;;;;;;6.83;1.90;;;22.10;53.60;;;;;;5052490;28;20409;-71
2023/04/13 11:34:51;;;;;;;4.53;1.70;;;23.10;51.50;;;;;;5052504;28;20831;-71
2023/04/13 11:37:18;;;;;;;5.53;1.97;;;23.30;48.20;;;;;;5052189;28;21153;-71
2023/04/13 11:39:44;;;;;;;3.00;1.53;;;23.10;47.80;;;;;;5052392;28;20404;-70
2023/04/13 11:42:11;;;;;;;4.70;1.67;;;22.80;47.90;;;;;;5052412;28;20775;-70
2023/04/13 11:44:38;;;;;;;4.60;2.53;;;23.10;48.00;;;;;;5051866;28;20274;-70
2023/04/13 11:47:04;;;;;;;10.60;4.17;;;23.10;48.60;;;;;;5051984;28;20959;-70
2023/04/13 11:49:31;;;;;;;6.47;2.63;;;22.50;47.20;;;;;;5052242;28;20413;-70
2023/04/13 11:51:58;;;;;;;8.27;2.00;;;22.20;48.30;;;;;;5052405;28;20421;-71
2023/04/13 11:54:24;;;;;;;5.83;2.30;;;22.40;48.10;;;;;;5052027;28;20483;-70
2023/04/13 11:56:49;;;;;;;2.90;1.80;;;22.80;49.10;;;;;;5051988;28;20401;-70
2023/04/13 11:59:15;;;;;;;5.40;2.07;;;24.40;49.20;;;;;;5052118;28;20163;-70
2023/04/13 12:01:48;;;;;;;5.03;2.47;;;25.90;46.20;;;;;;5052029;28;20162;-70
2023/04/13 12:04:14;;;;;;;5.40;2.40;;;26.90;44.20;;;;;;5052040;28;20915;-70
2023/04/13 12:06:41;;;;;;;6.87;2.40;;;28.30;45.00;;;;;;5051953;28;20413;-70
2023/04/13 12:09:08;;;;;;;3.10;1.70;;;29.80;41.60;;;;;;5051703;28;20198;-71
2023/04/13 12:11:38;;;;;;;7.47;1.57;;;30.20;40.50;;;;;;5051961;28;20816;-71
2023/04/13 12:14:04;;;;;;;3.13;1.80;;;31.30;39.70;;;;;;5051533;28;20461;-72
2023/04/13 12:16:32;;;;;;;4.43;1.97;;;32.40;38.70;;;;;;5051914;28;20462;-72
2023/04/13 12:19:08;;;;;;;3.33;1.87;;;31.90;37.30;;;;;;5051625;28;20163;-69
2023/04/13 12:21:33;;;;;;;4.23;2.43;;;31.60;36.90;;;;;;5051817;28;20409;-69
2023/04/13 12:24:01;;;;;;;3.90;2.13;;;30.80;35.50;;;;;;5051704;28;20428;-70
2023/04/13 12:26:36;;;;;;;4.60;2.10;;;31.00;35.50;;;;;;5051828;28;20167;-69
2023/04/13 12:29:05;;;;;;;5.97;1.90;;;30.50;34.20;;;;;;5051469;28;20401;-69
2023/04/13 12:31:33;;;;;;;3.30;2.20;;;30.90;35.80;;;;;;5051727;28;20409;-70
2023/04/13 12:33:59;;;;;;;3.93;2.43;;;32.90;34.30;;;;;;5051534;28;20456;-69
2023/04/13 12:36:30;;;;;;;4.83;1.83;;;33.80;31.10;;;;;;5051694;28;20409;-69
2023/04/13 12:38:56;;;;;;;2.73;1.80;;;32.40;29.30;;;;;;5051433;28;20167;-69
2023/04/13 12:41:21;;;;;;;3.57;1.67;;;30.90;29.30;;;;;;5051610;28;20409;-69
2023/04/13 12:43:47;;;;;;;3.57;1.50;;;29.70;29.90;;;;;;5051499;28;20949;-69
2023/04/13 12:46:13;;;;;;;3.87;1.60;;;28.30;30.90;;;;;;5051615;28;20175;-69
2023/04/13 12:48:39;;;;;;;3.93;1.60;;;27.80;31.50;;;;;;5051297;28;20175;-69
2023/04/13 12:51:04;;;;;;;3.93;1.60;;;27.00;32.40;;;;;;5051604;28;20405;-69
2023/04/13 12:53:30;;;;;;;4.37;1.50;;;25.30;31.20;;;;;;5051337;28;20193;-69